sensor_id;sensor_type;location;lat;lon;timestamp;P1;durP1;ratioP1;P2;durP2;ratioP2
5167;SDS011;2603;48.918;8.980;2022-12-18T00:00:06;88.95;;;46.70;;
5167;SDS011;2603;48.918;8.980;2022-12-18T00:02:38;86.30;;;46.75;;
5167;SDS011;2603;48.918;8.980;2022-12-18T00:05:07;90.47;;;46.45;;
5167;SDS011;2603;48.918;8.980;2022-12-18T00:07:33;92.15;;;43.38;;
5167;SDS011;2603;48.918;8.980;2022-12-18T00:10:01;88.65;;;41.70;;
5167;SDS011;2603;48.918;8.980;2022-12-18T00:12:28;86.20;;;42.05;;
5167;SDS011;2603;48.918;8.980;2022-12-18T00:14:55;89.40;;;43.97;;
5167;SDS011;2603;48.918;8.980;2022-12-18T00:17:22;100.38;;;44.78;;
5167;SDS011;2603;48.918;8.980;2022-12-18T00:19:49;92.53;;;43.25;;
5167;SDS011;2603;48.918;8.980;2022-12-18T00:22:17;90.53;;;39.38;;
5167;SDS011;2603;48.918;8.980;2022-12-18T00:24:44;93.45;;;42.78;;
5167;SDS011;2603;48.918;8.980;2022-12-18T00:27:11;84.00;;;42.13;;
5167;SDS011;2603;48.918;8.980;2022-12-18T00:29:37;85.15;;;41.47;;
5167;SDS011;2603;48.918;8.980;2022-12-18T00:32:04;97.25;;;43.25;;
5167;SDS011;2603;48.918;8.980;2022-12-18T00:34:31;79.63;;;40.17;;
5167;SDS011;2603;48.918;8.980;2022-12-18T00:36:57;82.13;;;39.28;;
5167;SDS011;2603;48.918;8.980;2022-12-18T00:39:25;87.57;;;39.20;;
5167;SDS011;2603;48.918;8.980;2022-12-18T00:41:52;85.93;;;42.80;;
5167;SDS011;2603;48.918;8.980;2022-12-18T00:44:36;91.03;;;44.00;;
5167;SDS011;2603;48.918;8.980;2022-12-18T00:47:03;94.68;;;41.92;;
5167;SDS011;2603;48.918;8.980;2022-12-18T00:49:30;85.72;;;45.97;;
5167;SDS011;2603;48.918;8.980;2022-12-18T00:51:56;89.30;;;47.17;;
5167;SDS011;2603;48.918;8.980;2022-12-18T00:54:23;97.30;;;47.97;;
5167;SDS011;2603;48.918;8.980;2022-12-18T00:56:51;82.55;;;43.78;;
5167;SDS011;2603;48.918;8.980;2022-12-18T00:59:20;72.63;;;41.05;;
5167;SDS011;2603;48.918;8.980;2022-12-18T01:01:47;76.55;;;42.20;;
5167;SDS011;2603;48.918;8.980;2022-12-18T01:04:13;81.05;;;41.70;;
5167;SDS011;2603;48.918;8.980;2022-12-18T01:06:44;79.80;;;40.83;;
5167;SDS011;2603;48.918;8.980;2022-12-18T01:09:10;72.10;;;40.90;;
5167;SDS011;2603;48.918;8.980;2022-12-18T01:11:37;68.25;;;36.85;;
5167;SDS011;2603;48.918;8.980;2022-12-18T01:14:06;69.05;;;38.05;;
5167;SDS011;2603;48.918;8.980;2022-12-18T01:16:32;66.95;;;34.67;;
5167;SDS011;2603;48.918;8.980;2022-12-18T01:18:59;68.65;;;36.90;;
5167;SDS011;2603;48.918;8.980;2022-12-18T01:21:26;66.88;;;37.20;;
5167;SDS011;2603;48.918;8.980;2022-12-18T01:23:54;73.07;;;38.72;;
5167;SDS011;2603;48.918;8.980;2022-12-18T01:26:22;69.20;;;39.28;;
5167;SDS011;2603;48.918;8.980;2022-12-18T01:28:49;65.82;;;38.60;;
5167;SDS011;2603;48.918;8.980;2022-12-18T01:31:19;74.15;;;39.75;;
5167;SDS011;2603;48.918;8.980;2022-12-18T01:33:47;77.35;;;38.95;;
5167;SDS011;2603;48.918;8.980;2022-12-18T01:36:14;80.78;;;40.40;;
5167;SDS011;2603;48.918;8.980;2022-12-18T01:38:42;70.68;;;37.08;;
5167;SDS011;2603;48.918;8.980;2022-12-18T01:41:09;79.90;;;41.60;;
5167;SDS011;2603;48.918;8.980;2022-12-18T01:43:46;72.90;;;39.05;;
5167;SDS011;2603;48.918;8.980;2022-12-18T01:46:16;73.20;;;40.03;;
5167;SDS011;2603;48.918;8.980;2022-12-18T01:48:44;68.25;;;35.75;;
5167;SDS011;2603;48.918;8.980;2022-12-18T01:51:12;88.53;;;42.47;;
5167;SDS011;2603;48.918;8.980;2022-12-18T01:53:40;77.25;;;41.38;;
5167;SDS011;2603;48.918;8.980;2022-12-18T01:56:08;80.93;;;39.83;;
5167;SDS011;2603;48.918;8.980;2022-12-18T01:58:39;85.72;;;42.85;;
5167;SDS011;2603;48.918;8.980;2022-12-18T02:01:08;82.00;;;41.13;;
5167;SDS011;2603;48.918;8.980;2022-12-18T02:03:36;81.82;;;39.55;;
5167;SDS011;2603;48.918;8.980;2022-12-18T02:06:05;80.90;;;40.50;;
5167;SDS011;2603;48.918;8.980;2022-12-18T02:08:36;86.97;;;38.53;;
5167;SDS011;2603;48.918;8.980;2022-12-18T02:11:06;85.72;;;39.33;;
5167;SDS011;2603;48.918;8.980;2022-12-18T02:13:36;74.47;;;38.65;;
5167;SDS011;2603;48.918;8.980;2022-12-18T02:16:09;86.13;;;42.78;;
5167;SDS011;2603;48.918;8.980;2022-12-18T02:18:44;82.28;;;41.20;;
5167;SDS011;2603;48.918;8.980;2022-12-18T02:21:12;80.28;;;40.28;;
5167;SDS011;2603;48.918;8.980;2022-12-18T02:23:47;71.00;;;39.15;;
5167;SDS011;2603;48.918;8.980;2022-12-18T02:26:21;74.03;;;39.95;;
5167;SDS011;2603;48.918;8.980;2022-12-18T02:28:51;77.53;;;41.33;;
5167;SDS011;2603;48.918;8.980;2022-12-18T02:31:21;66.40;;;36.42;;
5167;SDS011;2603;48.918;8.980;2022-12-18T02:33:51;71.40;;;37.17;;
5167;SDS011;2603;48.918;8.980;2022-12-18T02:36:21;76.53;;;39.70;;
5167;SDS011;2603;48.918;8.980;2022-12-18T02:38:48;72.97;;;38.92;;
5167;SDS011;2603;48.918;8.980;2022-12-18T02:41:17;78.15;;;43.17;;
5167;SDS011;2603;48.918;8.980;2022-12-18T02:43:49;77.32;;;40.95;;
5167;SDS011;2603;48.918;8.980;2022-12-18T02:46:23;77.28;;;43.90;;
5167;SDS011;2603;48.918;8.980;2022-12-18T02:48:53;73.70;;;41.65;;
5167;SDS011;2603;48.918;8.980;2022-12-18T02:51:29;73.53;;;41.45;;
5167;SDS011;2603;48.918;8.980;2022-12-18T02:53:59;79.45;;;43.03;;
5167;SDS011;2603;48.918;8.980;2022-12-18T02:56:34;80.85;;;41.50;;
5167;SDS011;2603;48.918;8.980;2022-12-18T02:59:04;86.00;;;45.25;;
5167;SDS011;2603;48.918;8.980;2022-12-18T03:01:44;95.13;;;51.47;;
5167;SDS011;2603;48.918;8.980;2022-12-18T03:04:18;101.03;;;47.00;;
5167;SDS011;2603;48.918;8.980;2022-12-18T03:06:49;85.05;;;46.65;;
5167;SDS011;2603;48.918;8.980;2022-12-18T03:09:19;91.47;;;49.78;;
5167;SDS011;2603;48.918;8.980;2022-12-18T03:11:48;88.30;;;47.00;;
5167;SDS011;2603;48.918;8.980;2022-12-18T03:14:36;96.00;;;48.70;;
5167;SDS011;2603;48.918;8.980;2022-12-18T03:17:05;88.50;;;44.47;;
5167;SDS011;2603;48.918;8.980;2022-12-18T03:19:33;82.10;;;42.58;;
5167;SDS011;2603;48.918;8.980;2022-12-18T03:22:02;77.72;;;42.67;;
5167;SDS011;2603;48.918;8.980;2022-12-18T03:24:40;95.10;;;43.03;;
5167;SDS011;2603;48.918;8.980;2022-12-18T03:27:08;90.13;;;44.67;;
5167;SDS011;2603;48.918;8.980;2022-12-18T03:29:40;104.88;;;47.15;;
5167;SDS011;2603;48.918;8.980;2022-12-18T03:32:15;82.43;;;44.13;;
5167;SDS011;2603;48.918;8.980;2022-12-18T03:34:46;83.80;;;44.63;;
5167;SDS011;2603;48.918;8.980;2022-12-18T03:37:17;96.90;;;46.10;;
5167;SDS011;2603;48.918;8.980;2022-12-18T03:39:44;100.03;;;48.60;;
5167;SDS011;2603;48.918;8.980;2022-12-18T03:42:12;86.85;;;47.85;;
5167;SDS011;2603;48.918;8.980;2022-12-18T03:44:49;78.10;;;44.65;;
5167;SDS011;2603;48.918;8.980;2022-12-18T03:47:21;91.43;;;45.10;;
5167;SDS011;2603;48.918;8.980;2022-12-18T03:49:56;95.40;;;49.20;;
5167;SDS011;2603;48.918;8.980;2022-12-18T03:52:25;101.43;;;44.83;;
5167;SDS011;2603;48.918;8.980;2022-12-18T03:54:54;91.03;;;42.30;;
5167;SDS011;2603;48.918;8.980;2022-12-18T03:57:22;91.10;;;42.10;;
5167;SDS011;2603;48.918;8.980;2022-12-18T03:59:54;89.60;;;48.40;;
5167;SDS011;2603;48.918;8.980;2022-12-18T04:02:27;96.38;;;49.53;;
5167;SDS011;2603;48.918;8.980;2022-12-18T04:04:57;110.68;;;50.40;;
5167;SDS011;2603;48.918;8.980;2022-12-18T04:07:26;98.55;;;48.80;;
5167;SDS011;2603;48.918;8.980;2022-12-18T04:09:56;94.82;;;45.63;;
5167;SDS011;2603;48.918;8.980;2022-12-18T04:12:25;113.47;;;52.08;;
5167;SDS011;2603;48.918;8.980;2022-12-18T04:14:54;110.18;;;46.50;;
5167;SDS011;2603;48.918;8.980;2022-12-18T04:17:21;111.40;;;50.05;;
5167;SDS011;2603;48.918;8.980;2022-12-18T04:19:48;93.20;;;47.15;;
5167;SDS011;2603;48.918;8.980;2022-12-18T04:22:15;103.30;;;48.33;;
5167;SDS011;2603;48.918;8.980;2022-12-18T04:24:46;102.60;;;42.78;;
5167;SDS011;2603;48.918;8.980;2022-12-18T04:27:21;100.45;;;48.95;;
5167;SDS011;2603;48.918;8.980;2022-12-18T04:29:50;100.25;;;46.22;;
5167;SDS011;2603;48.918;8.980;2022-12-18T04:32:18;90.68;;;42.42;;
5167;SDS011;2603;48.918;8.980;2022-12-18T04:34:46;93.53;;;42.05;;
5167;SDS011;2603;48.918;8.980;2022-12-18T04:37:14;77.25;;;42.67;;
5167;SDS011;2603;48.918;8.980;2022-12-18T04:39:41;96.25;;;42.47;;
5167;SDS011;2603;48.918;8.980;2022-12-18T04:42:15;90.45;;;45.17;;
5167;SDS011;2603;48.918;8.980;2022-12-18T04:44:41;93.10;;;44.30;;
5167;SDS011;2603;48.918;8.980;2022-12-18T04:47:08;105.85;;;49.25;;
5167;SDS011;2603;48.918;8.980;2022-12-18T04:49:47;92.95;;;49.40;;
5167;SDS011;2603;48.918;8.980;2022-12-18T04:52:14;91.00;;;44.35;;
5167;SDS011;2603;48.918;8.980;2022-12-18T04:54:41;96.32;;;47.28;;
5167;SDS011;2603;48.918;8.980;2022-12-18T04:57:07;88.35;;;41.35;;
5167;SDS011;2603;48.918;8.980;2022-12-18T04:59:34;90.10;;;41.65;;
5167;SDS011;2603;48.918;8.980;2022-12-18T05:02:00;90.10;;;40.85;;
5167;SDS011;2603;48.918;8.980;2022-12-18T05:04:27;83.93;;;39.38;;
5167;SDS011;2603;48.918;8.980;2022-12-18T05:06:55;80.47;;;40.20;;
5167;SDS011;2603;48.918;8.980;2022-12-18T05:09:22;90.90;;;45.00;;
5167;SDS011;2603;48.918;8.980;2022-12-18T05:11:49;82.90;;;40.05;;
5167;SDS011;2603;48.918;8.980;2022-12-18T05:14:16;90.97;;;46.97;;
5167;SDS011;2603;48.918;8.980;2022-12-18T05:16:42;99.95;;;49.50;;
5167;SDS011;2603;48.918;8.980;2022-12-18T05:19:09;86.00;;;40.40;;
5167;SDS011;2603;48.918;8.980;2022-12-18T05:21:35;82.43;;;39.85;;
5167;SDS011;2603;48.918;8.980;2022-12-18T05:24:04;86.18;;;41.25;;
5167;SDS011;2603;48.918;8.980;2022-12-18T05:26:31;88.05;;;44.05;;
5167;SDS011;2603;48.918;8.980;2022-12-18T05:28:58;88.82;;;42.55;;
5167;SDS011;2603;48.918;8.980;2022-12-18T05:31:24;81.03;;;43.40;;
5167;SDS011;2603;48.918;8.980;2022-12-18T05:33:51;82.18;;;41.13;;
5167;SDS011;2603;48.918;8.980;2022-12-18T05:36:17;80.03;;;41.60;;
5167;SDS011;2603;48.918;8.980;2022-12-18T05:38:44;84.28;;;41.33;;
5167;SDS011;2603;48.918;8.980;2022-12-18T05:41:12;80.80;;;41.03;;
5167;SDS011;2603;48.918;8.980;2022-12-18T05:43:39;86.30;;;41.05;;
5167;SDS011;2603;48.918;8.980;2022-12-18T05:46:05;76.40;;;39.72;;
5167;SDS011;2603;48.918;8.980;2022-12-18T05:48:33;76.97;;;38.55;;
5167;SDS011;2603;48.918;8.980;2022-12-18T05:51:03;77.63;;;40.92;;
5167;SDS011;2603;48.918;8.980;2022-12-18T05:53:31;78.28;;;41.10;;
5167;SDS011;2603;48.918;8.980;2022-12-18T05:55:59;83.25;;;40.72;;
5167;SDS011;2603;48.918;8.980;2022-12-18T05:58:28;72.57;;;40.97;;
5167;SDS011;2603;48.918;8.980;2022-12-18T06:00:55;74.45;;;39.22;;
5167;SDS011;2603;48.918;8.980;2022-12-18T06:03:21;83.80;;;44.13;;
5167;SDS011;2603;48.918;8.980;2022-12-18T06:05:48;90.15;;;43.67;;
5167;SDS011;2603;48.918;8.980;2022-12-18T06:08:14;114.57;;;49.17;;
5167;SDS011;2603;48.918;8.980;2022-12-18T06:10:41;106.13;;;46.55;;
5167;SDS011;2603;48.918;8.980;2022-12-18T06:13:08;90.00;;;43.83;;
5167;SDS011;2603;48.918;8.980;2022-12-18T06:15:37;85.43;;;39.25;;
5167;SDS011;2603;48.918;8.980;2022-12-18T06:18:04;121.00;;;51.05;;
5167;SDS011;2603;48.918;8.980;2022-12-18T06:20:30;77.93;;;38.45;;
5167;SDS011;2603;48.918;8.980;2022-12-18T06:22:57;75.82;;;38.75;;
5167;SDS011;2603;48.918;8.980;2022-12-18T06:25:23;104.05;;;49.30;;
5167;SDS011;2603;48.918;8.980;2022-12-18T06:27:50;223.93;;;107.93;;
5167;SDS011;2603;48.918;8.980;2022-12-18T06:30:17;238.73;;;109.15;;
5167;SDS011;2603;48.918;8.980;2022-12-18T06:32:45;336.70;;;155.27;;
5167;SDS011;2603;48.918;8.980;2022-12-18T06:35:11;318.67;;;143.48;;
5167;SDS011;2603;48.918;8.980;2022-12-18T06:37:38;257.25;;;123.13;;
5167;SDS011;2603;48.918;8.980;2022-12-18T06:40:05;257.95;;;116.93;;
5167;SDS011;2603;48.918;8.980;2022-12-18T06:42:33;161.05;;;66.18;;
5167;SDS011;2603;48.918;8.980;2022-12-18T06:45:01;101.85;;;46.10;;
5167;SDS011;2603;48.918;8.980;2022-12-18T06:47:27;72.25;;;39.70;;
5167;SDS011;2603;48.918;8.980;2022-12-18T06:49:55;77.63;;;37.25;;
5167;SDS011;2603;48.918;8.980;2022-12-18T06:52:22;70.40;;;37.22;;
5167;SDS011;2603;48.918;8.980;2022-12-18T06:54:48;68.43;;;37.53;;
5167;SDS011;2603;48.918;8.980;2022-12-18T06:57:15;65.72;;;34.13;;
5167;SDS011;2603;48.918;8.980;2022-12-18T06:59:41;74.78;;;38.65;;
5167;SDS011;2603;48.918;8.980;2022-12-18T07:02:10;83.30;;;41.13;;
5167;SDS011;2603;48.918;8.980;2022-12-18T07:04:37;75.60;;;34.70;;
5167;SDS011;2603;48.918;8.980;2022-12-18T07:07:05;77.80;;;39.00;;
5167;SDS011;2603;48.918;8.980;2022-12-18T07:09:32;71.90;;;37.22;;
5167;SDS011;2603;48.918;8.980;2022-12-18T07:11:58;69.03;;;37.00;;
5167;SDS011;2603;48.918;8.980;2022-12-18T07:14:25;75.38;;;36.70;;
5167;SDS011;2603;48.918;8.980;2022-12-18T07:16:51;77.03;;;36.53;;
5167;SDS011;2603;48.918;8.980;2022-12-18T07:19:18;66.57;;;34.22;;
5167;SDS011;2603;48.918;8.980;2022-12-18T07:21:44;67.85;;;36.47;;
5167;SDS011;2603;48.918;8.980;2022-12-18T07:24:12;63.45;;;33.10;;
5167;SDS011;2603;48.918;8.980;2022-12-18T07:26:39;69.97;;;35.85;;
5167;SDS011;2603;48.918;8.980;2022-12-18T07:29:05;70.28;;;35.47;;
5167;SDS011;2603;48.918;8.980;2022-12-18T07:31:32;64.13;;;35.75;;
5167;SDS011;2603;48.918;8.980;2022-12-18T07:33:59;72.00;;;39.53;;
5167;SDS011;2603;48.918;8.980;2022-12-18T07:36:26;72.28;;;38.55;;
5167;SDS011;2603;48.918;8.980;2022-12-18T07:38:52;80.10;;;40.58;;
5167;SDS011;2603;48.918;8.980;2022-12-18T07:41:21;76.00;;;38.30;;
5167;SDS011;2603;48.918;8.980;2022-12-18T07:43:48;72.68;;;34.80;;
5167;SDS011;2603;48.918;8.980;2022-12-18T07:46:15;62.08;;;34.30;;
5167;SDS011;2603;48.918;8.980;2022-12-18T07:48:42;70.97;;;39.92;;
5167;SDS011;2603;48.918;8.980;2022-12-18T07:51:09;63.70;;;34.28;;
5167;SDS011;2603;48.918;8.980;2022-12-18T07:53:36;63.58;;;34.60;;
5167;SDS011;2603;48.918;8.980;2022-12-18T07:56:03;58.05;;;32.05;;
5167;SDS011;2603;48.918;8.980;2022-12-18T07:58:33;54.78;;;30.52;;
5167;SDS011;2603;48.918;8.980;2022-12-18T08:01:03;58.47;;;32.55;;
5167;SDS011;2603;48.918;8.980;2022-12-18T08:03:30;63.70;;;31.75;;
5167;SDS011;2603;48.918;8.980;2022-12-18T08:05:58;62.53;;;32.85;;
5167;SDS011;2603;48.918;8.980;2022-12-18T08:08:25;62.78;;;32.45;;
5167;SDS011;2603;48.918;8.980;2022-12-18T08:10:52;60.67;;;30.85;;
5167;SDS011;2603;48.918;8.980;2022-12-18T08:13:19;59.50;;;30.67;;
5167;SDS011;2603;48.918;8.980;2022-12-18T08:15:48;57.58;;;28.85;;
5167;SDS011;2603;48.918;8.980;2022-12-18T08:18:21;64.85;;;29.58;;
5167;SDS011;2603;48.918;8.980;2022-12-18T08:20:49;55.22;;;26.83;;
5167;SDS011;2603;48.918;8.980;2022-12-18T08:23:15;60.70;;;27.20;;
5167;SDS011;2603;48.918;8.980;2022-12-18T08:25:42;58.97;;;26.92;;
5167;SDS011;2603;48.918;8.980;2022-12-18T08:28:09;60.67;;;27.90;;
5167;SDS011;2603;48.918;8.980;2022-12-18T08:30:35;54.75;;;27.17;;
5167;SDS011;2603;48.918;8.980;2022-12-18T08:33:03;63.25;;;27.80;;
5167;SDS011;2603;48.918;8.980;2022-12-18T08:35:30;65.53;;;28.17;;
5167;SDS011;2603;48.918;8.980;2022-12-18T08:38:01;63.75;;;28.13;;
5167;SDS011;2603;48.918;8.980;2022-12-18T08:40:27;70.40;;;29.20;;
5167;SDS011;2603;48.918;8.980;2022-12-18T08:42:54;59.13;;;28.98;;
5167;SDS011;2603;48.918;8.980;2022-12-18T08:45:38;71.75;;;31.42;;
5167;SDS011;2603;48.918;8.980;2022-12-18T08:48:06;61.67;;;29.63;;
5167;SDS011;2603;48.918;8.980;2022-12-18T08:50:33;70.28;;;31.17;;
5167;SDS011;2603;48.918;8.980;2022-12-18T08:52:59;64.17;;;28.30;;
5167;SDS011;2603;48.918;8.980;2022-12-18T08:55:26;64.70;;;28.30;;
5167;SDS011;2603;48.918;8.980;2022-12-18T08:57:53;58.43;;;28.40;;
5167;SDS011;2603;48.918;8.980;2022-12-18T09:00:19;68.10;;;31.08;;
5167;SDS011;2603;48.918;8.980;2022-12-18T09:02:46;74.23;;;31.80;;
5167;SDS011;2603;48.918;8.980;2022-12-18T09:05:14;60.23;;;30.20;;
5167;SDS011;2603;48.918;8.980;2022-12-18T09:07:41;64.60;;;31.10;;
5167;SDS011;2603;48.918;8.980;2022-12-18T09:10:07;61.70;;;30.05;;
5167;SDS011;2603;48.918;8.980;2022-12-18T09:12:34;61.63;;;29.00;;
5167;SDS011;2603;48.918;8.980;2022-12-18T09:15:01;63.43;;;29.00;;
5167;SDS011;2603;48.918;8.980;2022-12-18T09:17:27;64.23;;;27.77;;
5167;SDS011;2603;48.918;8.980;2022-12-18T09:19:54;56.27;;;25.43;;
5167;SDS011;2603;48.918;8.980;2022-12-18T09:22:22;54.80;;;26.67;;
5167;SDS011;2603;48.918;8.980;2022-12-18T09:24:48;54.87;;;27.10;;
5167;SDS011;2603;48.918;8.980;2022-12-18T09:27:15;59.63;;;27.03;;
5167;SDS011;2603;48.918;8.980;2022-12-18T09:29:41;51.43;;;26.33;;
5167;SDS011;2603;48.918;8.980;2022-12-18T09:32:08;60.97;;;29.10;;
5167;SDS011;2603;48.918;8.980;2022-12-18T09:34:35;51.50;;;25.13;;
5167;SDS011;2603;48.918;8.980;2022-12-18T09:37:02;59.07;;;27.80;;
5167;SDS011;2603;48.918;8.980;2022-12-18T09:39:30;47.90;;;24.83;;
5167;SDS011;2603;48.918;8.980;2022-12-18T09:41:57;49.27;;;24.53;;
5167;SDS011;2603;48.918;8.980;2022-12-18T09:44:24;54.23;;;26.70;;
5167;SDS011;2603;48.918;8.980;2022-12-18T09:46:54;64.63;;;27.93;;
5167;SDS011;2603;48.918;8.980;2022-12-18T09:49:26;57.83;;;26.73;;
5167;SDS011;2603;48.918;8.980;2022-12-18T09:51:56;58.13;;;25.50;;
5167;SDS011;2603;48.918;8.980;2022-12-18T09:54:25;58.30;;;27.73;;
5167;SDS011;2603;48.918;8.980;2022-12-18T09:56:55;63.97;;;29.23;;
5167;SDS011;2603;48.918;8.980;2022-12-18T09:59:23;52.93;;;26.80;;
5167;SDS011;2603;48.918;8.980;2022-12-18T10:01:50;62.13;;;26.37;;
5167;SDS011;2603;48.918;8.980;2022-12-18T10:04:17;60.60;;;27.40;;
5167;SDS011;2603;48.918;8.980;2022-12-18T10:06:46;69.70;;;26.00;;
5167;SDS011;2603;48.918;8.980;2022-12-18T10:09:17;60.30;;;26.83;;
5167;SDS011;2603;48.918;8.980;2022-12-18T10:11:54;63.33;;;26.50;;
5167;SDS011;2603;48.918;8.980;2022-12-18T10:14:30;72.17;;;30.03;;
5167;SDS011;2603;48.918;8.980;2022-12-18T10:17:02;76.97;;;31.40;;
5167;SDS011;2603;48.918;8.980;2022-12-18T10:19:39;57.00;;;27.93;;
5167;SDS011;2603;48.918;8.980;2022-12-18T10:22:16;62.60;;;27.60;;
5167;SDS011;2603;48.918;8.980;2022-12-18T10:24:48;61.83;;;25.70;;
5167;SDS011;2603;48.918;8.980;2022-12-18T10:27:23;55.47;;;27.00;;
5167;SDS011;2603;48.918;8.980;2022-12-18T10:29:51;54.47;;;27.60;;
5167;SDS011;2603;48.918;8.980;2022-12-18T10:32:19;57.43;;;25.47;;
5167;SDS011;2603;48.918;8.980;2022-12-18T10:34:48;61.50;;;27.10;;
5167;SDS011;2603;48.918;8.980;2022-12-18T10:37:16;60.47;;;26.67;;
5167;SDS011;2603;48.918;8.980;2022-12-18T10:39:43;58.60;;;26.63;;
5167;SDS011;2603;48.918;8.980;2022-12-18T10:42:11;59.10;;;27.10;;
5167;SDS011;2603;48.918;8.980;2022-12-18T10:44:43;57.73;;;26.40;;
5167;SDS011;2603;48.918;8.980;2022-12-18T10:47:11;61.77;;;26.50;;
5167;SDS011;2603;48.918;8.980;2022-12-18T10:49:42;64.20;;;26.83;;
5167;SDS011;2603;48.918;8.980;2022-12-18T10:52:14;67.73;;;26.70;;
5167;SDS011;2603;48.918;8.980;2022-12-18T10:54:46;57.77;;;27.47;;
5167;SDS011;2603;48.918;8.980;2022-12-18T10:57:15;61.50;;;26.10;;
5167;SDS011;2603;48.918;8.980;2022-12-18T10:59:50;58.70;;;26.03;;
5167;SDS011;2603;48.918;8.980;2022-12-18T11:02:24;54.10;;;26.53;;
5167;SDS011;2603;48.918;8.980;2022-12-18T11:04:53;58.37;;;25.97;;
5167;SDS011;2603;48.918;8.980;2022-12-18T11:07:19;52.07;;;23.30;;
5167;SDS011;2603;48.918;8.980;2022-12-18T11:09:46;60.67;;;24.30;;
5167;SDS011;2603;48.918;8.980;2022-12-18T11:12:29;53.07;;;23.83;;
5167;SDS011;2603;48.918;8.980;2022-12-18T11:14:57;48.90;;;24.90;;
5167;SDS011;2603;48.918;8.980;2022-12-18T11:17:28;50.30;;;22.87;;
5167;SDS011;2603;48.918;8.980;2022-12-18T11:19:56;48.57;;;23.23;;
5167;SDS011;2603;48.918;8.980;2022-12-18T11:22:23;50.53;;;23.47;;
5167;SDS011;2603;48.918;8.980;2022-12-18T11:24:53;55.57;;;23.20;;
5167;SDS011;2603;48.918;8.980;2022-12-18T11:27:22;53.90;;;23.70;;
5167;SDS011;2603;48.918;8.980;2022-12-18T11:29:49;51.93;;;24.40;;
5167;SDS011;2603;48.918;8.980;2022-12-18T11:32:23;55.30;;;25.00;;
5167;SDS011;2603;48.918;8.980;2022-12-18T11:34:56;50.80;;;24.27;;
5167;SDS011;2603;48.918;8.980;2022-12-18T11:37:26;57.43;;;25.50;;
5167;SDS011;2603;48.918;8.980;2022-12-18T11:39:54;50.00;;;21.93;;
5167;SDS011;2603;48.918;8.980;2022-12-18T11:42:23;53.83;;;24.83;;
5167;SDS011;2603;48.918;8.980;2022-12-18T11:44:54;53.70;;;22.73;;
5167;SDS011;2603;48.918;8.980;2022-12-18T11:47:26;47.80;;;21.80;;
5167;SDS011;2603;48.918;8.980;2022-12-18T11:49:59;55.93;;;25.27;;
5167;SDS011;2603;48.918;8.980;2022-12-18T11:52:27;50.83;;;23.47;;
5167;SDS011;2603;48.918;8.980;2022-12-18T11:55:00;59.27;;;24.33;;
5167;SDS011;2603;48.918;8.980;2022-12-18T11:57:31;47.70;;;22.40;;
5167;SDS011;2603;48.918;8.980;2022-12-18T12:00:03;54.47;;;23.60;;
5167;SDS011;2603;48.918;8.980;2022-12-18T12:05:49;52.67;;;24.63;;
5167;SDS011;2603;48.918;8.980;2022-12-18T12:08:23;55.57;;;26.10;;
5167;SDS011;2603;48.918;8.980;2022-12-18T12:10:57;59.37;;;26.00;;
5167;SDS011;2603;48.918;8.980;2022-12-18T12:13:29;57.30;;;26.57;;
5167;SDS011;2603;48.918;8.980;2022-12-18T12:16:15;48.27;;;24.43;;
5167;SDS011;2603;48.918;8.980;2022-12-18T12:18:49;49.43;;;23.53;;
5167;SDS011;2603;48.918;8.980;2022-12-18T12:21:28;59.37;;;24.00;;
5167;SDS011;2603;48.918;8.980;2022-12-18T12:24:04;50.97;;;25.10;;
5167;SDS011;2603;48.918;8.980;2022-12-18T12:26:42;70.10;;;27.20;;
5167;SDS011;2603;48.918;8.980;2022-12-18T12:29:23;49.37;;;22.83;;
5167;SDS011;2603;48.918;8.980;2022-12-18T12:32:07;48.50;;;22.07;;
5167;SDS011;2603;48.918;8.980;2022-12-18T12:34:42;46.57;;;21.67;;
5167;SDS011;2603;48.918;8.980;2022-12-18T12:37:18;45.37;;;21.90;;
5167;SDS011;2603;48.918;8.980;2022-12-18T12:39:48;58.13;;;23.83;;
5167;SDS011;2603;48.918;8.980;2022-12-18T12:42:18;54.33;;;22.73;;
5167;SDS011;2603;48.918;8.980;2022-12-18T12:45:05;46.33;;;21.40;;
5167;SDS011;2603;48.918;8.980;2022-12-18T12:47:35;60.73;;;25.43;;
5167;SDS011;2603;48.918;8.980;2022-12-18T12:50:11;51.53;;;22.70;;
5167;SDS011;2603;48.918;8.980;2022-12-18T12:52:41;58.03;;;23.03;;
5167;SDS011;2603;48.918;8.980;2022-12-18T12:55:12;50.90;;;24.00;;
5167;SDS011;2603;48.918;8.980;2022-12-18T12:57:43;67.67;;;27.07;;
5167;SDS011;2603;48.918;8.980;2022-12-18T13:00:13;64.40;;;25.67;;
5167;SDS011;2603;48.918;8.980;2022-12-18T13:02:42;67.13;;;26.40;;
5167;SDS011;2603;48.918;8.980;2022-12-18T13:05:16;60.67;;;27.73;;
5167;SDS011;2603;48.918;8.980;2022-12-18T13:07:47;54.13;;;23.60;;
5167;SDS011;2603;48.918;8.980;2022-12-18T13:10:24;54.63;;;23.20;;
5167;SDS011;2603;48.918;8.980;2022-12-18T13:12:56;51.80;;;24.20;;
5167;SDS011;2603;48.918;8.980;2022-12-18T13:15:24;53.50;;;24.30;;
5167;SDS011;2603;48.918;8.980;2022-12-18T13:18:02;52.47;;;25.63;;
5167;SDS011;2603;48.918;8.980;2022-12-18T13:20:34;46.93;;;23.80;;
5167;SDS011;2603;48.918;8.980;2022-12-18T13:23:01;51.70;;;22.37;;
5167;SDS011;2603;48.918;8.980;2022-12-18T13:25:46;58.53;;;26.20;;
5167;SDS011;2603;48.918;8.980;2022-12-18T13:28:16;55.23;;;26.10;;
5167;SDS011;2603;48.918;8.980;2022-12-18T13:30:46;51.67;;;23.00;;
5167;SDS011;2603;48.918;8.980;2022-12-18T13:36:36;50.50;;;23.53;;
5167;SDS011;2603;48.918;8.980;2022-12-18T13:45:38;53.70;;;25.23;;
5167;SDS011;2603;48.918;8.980;2022-12-18T13:50:59;53.50;;;23.20;;
5167;SDS011;2603;48.918;8.980;2022-12-18T13:53:29;52.53;;;22.60;;
5167;SDS011;2603;48.918;8.980;2022-12-18T13:55:59;55.77;;;24.23;;
5167;SDS011;2603;48.918;8.980;2022-12-18T13:58:26;55.93;;;23.30;;
5167;SDS011;2603;48.918;8.980;2022-12-18T14:00:53;57.33;;;23.80;;
5167;SDS011;2603;48.918;8.980;2022-12-18T14:03:21;53.90;;;23.67;;
5167;SDS011;2603;48.918;8.980;2022-12-18T14:05:55;55.60;;;24.10;;
5167;SDS011;2603;48.918;8.980;2022-12-18T14:08:23;59.70;;;24.00;;
5167;SDS011;2603;48.918;8.980;2022-12-18T14:10:52;55.47;;;23.40;;
5167;SDS011;2603;48.918;8.980;2022-12-18T14:13:21;50.93;;;24.70;;
5167;SDS011;2603;48.918;8.980;2022-12-18T14:15:51;52.73;;;23.00;;
5167;SDS011;2603;48.918;8.980;2022-12-18T14:18:19;51.17;;;25.13;;
5167;SDS011;2603;48.918;8.980;2022-12-18T14:20:47;52.50;;;24.33;;
5167;SDS011;2603;48.918;8.980;2022-12-18T14:23:28;59.67;;;26.90;;
5167;SDS011;2603;48.918;8.980;2022-12-18T14:25:57;59.30;;;26.17;;
5167;SDS011;2603;48.918;8.980;2022-12-18T14:28:24;61.90;;;26.70;;
5167;SDS011;2603;48.918;8.980;2022-12-18T14:30:51;67.97;;;27.40;;
5167;SDS011;2603;48.918;8.980;2022-12-18T14:33:19;75.77;;;26.57;;
5167;SDS011;2603;48.918;8.980;2022-12-18T14:35:52;71.17;;;29.67;;
5167;SDS011;2603;48.918;8.980;2022-12-18T14:38:22;57.40;;;26.53;;
5167;SDS011;2603;48.918;8.980;2022-12-18T14:40:52;62.33;;;27.30;;
5167;SDS011;2603;48.918;8.980;2022-12-18T14:43:21;62.60;;;26.43;;
5167;SDS011;2603;48.918;8.980;2022-12-18T14:45:48;54.97;;;24.77;;
5167;SDS011;2603;48.918;8.980;2022-12-18T14:48:16;56.07;;;25.90;;
5167;SDS011;2603;48.918;8.980;2022-12-18T14:50:44;52.00;;;25.17;;
5167;SDS011;2603;48.918;8.980;2022-12-18T14:53:18;54.97;;;23.57;;
5167;SDS011;2603;48.918;8.980;2022-12-18T14:55:47;48.50;;;23.13;;
5167;SDS011;2603;48.918;8.980;2022-12-18T14:58:15;54.13;;;23.93;;
5167;SDS011;2603;48.918;8.980;2022-12-18T15:00:43;55.20;;;24.67;;
5167;SDS011;2603;48.918;8.980;2022-12-18T15:03:10;55.77;;;24.77;;
5167;SDS011;2603;48.918;8.980;2022-12-18T15:05:38;53.63;;;26.90;;
5167;SDS011;2603;48.918;8.980;2022-12-18T15:10:54;60.43;;;24.30;;
5167;SDS011;2603;48.918;8.980;2022-12-18T15:13:22;59.40;;;25.90;;
5167;SDS011;2603;48.918;8.980;2022-12-18T15:15:51;145.00;;;60.20;;